Time;durP1;ratioP1;P1;durP2;ratioP2;P2;SDS_P1;SDS_P2;PMS_P1;PMS_P2;Temp;Humidity;BMP_temperature;BMP_pressure;BME280_temperature;BME280_humidity;BME280_pressure;Samples;Min_cycle;Max_cycle;Signal;HPM_P1;HPM_P2
2021/09/14 13:03:21;;;;;;;4.47;2.47;;;23.30;99.90;;;;;;6267717;22;20279;-74
2021/09/14 13:05:48;;;;;;;3.22;2.50;;;23.10;99.90;;;;;;6271928;22;20174;-72
2021/09/14 13:08:15;;;;;;;3.67;2.33;;;23.20;99.90;;;;;;6277125;22;20178;-72
2021/09/14 13:10:42;;;;;;;3.28;2.53;;;23.30;99.90;;;;;;6277320;22;20179;-71
2021/09/14 13:16:12;;;;;;;4.18;2.60;;;23.60;99.90;;;;;;6277327;22;20181;-73
2021/09/14 13:18:40;;;;;;;5.07;2.25;;;23.70;99.90;;;;;;6275743;22;20261;-75
2021/09/14 13:21:08;;;;;;;2.75;2.13;;;24.00;99.90;;;;;;6276529;22;20175;-77
2021/09/14 13:23:35;;;;;;;3.20;2.13;;;24.20;99.90;;;;;;6276153;22;20236;-73
2021/09/14 13:26:03;;;;;;;3.38;2.47;;;24.40;99.90;;;;;;6275052;22;20179;-75
2021/09/14 13:28:30;;;;;;;5.20;2.70;;;24.30;99.90;;;;;;6275496;22;20178;-76
2021/09/14 13:30:57;;;;;;;4.95;2.70;;;24.10;99.90;;;;;;6276384;22;20254;-76
2021/09/14 13:33:24;;;;;;;4.00;2.47;;;24.20;99.90;;;;;;6276145;22;20183;-77
2021/09/14 13:35:52;;;;;;;3.80;2.40;;;24.20;99.90;;;;;;6277043;22;20262;-76
2021/09/14 13:38:19;;;;;;;3.70;2.25;;;23.80;99.90;;;;;;6277822;22;20668;-75
2021/09/14 13:40:48;;;;;;;4.18;2.70;;;23.70;99.90;;;;;;6275537;22;20178;-73
2021/09/14 13:43:22;;;;;;;3.17;2.10;;;23.80;99.90;;;;;;6275313;22;20617;-77
2021/09/14 13:48:33;;;;;;;5.15;2.55;;;23.90;99.90;;;;;;6275680;22;20271;-75
2021/09/14 13:51:04;;;;;;;5.03;2.80;;;23.60;99.90;;;;;;6275898;22;20175;-76
2021/09/14 13:53:31;;;;;;;2.88;2.08;;;23.30;99.90;;;;;;6276116;22;20208;-73
2021/09/14 13:55:58;;;;;;;5.35;2.42;;;23.30;99.90;;;;;;6274487;22;20510;-75
2021/09/14 13:58:25;;;;;;;5.15;2.30;;;23.30;99.90;;;;;;6275575;22;20282;-73
2021/09/14 14:00:52;;;;;;;3.33;2.53;;;23.10;99.90;;;;;;6274759;22;20919;-76
2021/09/14 14:03:19;;;;;;;3.25;2.22;;;23.00;99.90;;;;;;6274210;22;20183;-75
2021/09/14 14:05:46;;;;;;;3.40;2.22;;;23.00;99.90;;;;;;6275031;22;20257;-76
2021/09/14 14:08:14;;;;;;;6.63;3.03;;;23.10;99.90;;;;;;6276051;22;20266;-77
2021/09/14 14:10:41;;;;;;;4.63;2.60;;;23.20;99.90;;;;;;6275000;22;20285;-74
2021/09/14 14:13:08;;;;;;;3.95;2.67;;;23.20;99.90;;;;;;6275696;22;20189;-78
2021/09/14 14:15:35;;;;;;;3.67;2.50;;;23.20;99.90;;;;;;6275818;22;20257;-76
2021/09/14 14:18:02;;;;;;;4.60;2.47;;;23.10;99.90;;;;;;6275012;22;20262;-75
2021/09/14 14:20:28;;;;;;;3.50;2.50;;;23.00;99.90;;;;;;6278466;22;20205;-76
2021/09/14 14:22:55;;;;;;;4.82;2.60;;;23.10;99.90;;;;;;6274227;22;20550;-74
2021/09/14 14:25:23;;;;;;;3.00;2.35;;;23.10;99.90;;;;;;6276263;22;20217;-76
2021/09/14 14:27:50;;;;;;;4.38;2.58;;;23.00;99.90;;;;;;6278573;22;20253;-79
2021/09/14 14:30:17;;;;;;;4.43;2.50;;;23.10;99.90;;;;;;6276621;22;20504;-78
2021/09/14 14:32:44;;;;;;;3.92;2.92;;;23.00;99.90;;;;;;6275562;22;20185;-74
2021/09/14 14:35:11;;;;;;;4.65;2.78;;;23.00;99.90;;;;;;6276150;22;20179;-75
2021/09/14 14:37:38;;;;;;;4.03;2.60;;;22.90;99.90;;;;;;6275620;22;20696;-73
2021/09/14 14:40:06;;;;;;;6.63;3.10;;;22.80;99.90;;;;;;6276444;22;20210;-76
2021/09/14 14:42:34;;;;;;;4.43;3.00;;;22.70;99.90;;;;;;6276236;22;20175;-77
2021/09/14 14:45:00;;;;;;;4.07;2.65;;;22.70;99.90;;;;;;6276061;22;20183;-76
2021/09/14 14:47:27;;;;;;;4.13;2.40;;;22.70;99.90;;;;;;6276322;22;20181;-76
2021/09/14 14:49:54;;;;;;;4.07;2.80;;;22.80;99.90;;;;;;6276031;22;20206;-76
2021/09/14 14:52:21;;;;;;;4.15;2.53;;;22.80;99.90;;;;;;6276562;22;20175;-79
2021/09/14 14:54:47;;;;;;;4.18;2.40;;;22.80;99.90;;;;;;6275400;22;20182;-77
2021/09/14 14:57:14;;;;;;;3.83;2.47;;;22.80;99.90;;;;;;6275524;22;20175;-76
2021/09/14 14:59:42;;;;;;;4.65;2.63;;;22.90;99.90;;;;;;6276286;22;20237;-77
2021/09/14 15:02:09;;;;;;;4.78;2.53;;;23.00;99.90;;;;;;6275841;22;20186;-75
2021/09/14 15:04:36;;;;;;;3.33;2.47;;;22.90;99.90;;;;;;6275754;22;20174;-76
2021/09/14 15:07:03;;;;;;;5.90;2.35;;;22.70;99.90;;;;;;6275991;22;20183;-73
2021/09/14 15:09:29;;;;;;;3.08;2.53;;;22.90;99.90;;;;;;6275824;22;20201;-78
2021/09/14 15:11:56;;;;;;;5.15;2.90;;;22.90;99.90;;;;;;6276176;22;20175;-73
2021/09/14 15:14:23;;;;;;;3.20;2.60;;;23.10;99.90;;;;;;6275802;22;20178;-77
2021/09/14 15:16:51;;;;;;;4.13;2.90;;;23.20;99.90;;;;;;6275540;22;20182;-76
2021/09/14 15:19:18;;;;;;;4.53;3.03;;;22.90;99.90;;;;;;6275469;22;20210;-77
2021/09/14 15:21:45;;;;;;;4.22;2.63;;;22.70;99.90;;;;;;6275820;22;20182;-76
2021/09/14 15:24:12;;;;;;;3.58;2.40;;;22.80;99.90;;;;;;6274079;22;20221;-75
2021/09/14 15:26:39;;;;;;;2.97;2.17;;;22.80;99.90;;;;;;6275895;22;20175;-73
2021/09/14 15:29:05;;;;;;;2.88;2.28;;;22.70;99.90;;;;;;6275384;22;20507;-77
2021/09/14 15:31:33;;;;;;;5.63;2.30;;;22.60;99.90;;;;;;6275359;22;20179;-78
2021/09/14 15:34:01;;;;;;;3.10;2.15;;;22.40;99.90;;;;;;6276665;22;20179;-74
2021/09/14 15:36:29;;;;;;;3.08;1.98;;;22.50;99.90;;;;;;6277139;22;20202;-78
2021/09/14 15:38:56;;;;;;;3.17;2.30;;;22.60;99.90;;;;;;6275472;22;20214;-72
2021/09/14 15:41:23;;;;;;;2.90;2.25;;;22.50;99.90;;;;;;6275658;22;20175;-74
2021/09/14 15:43:49;;;;;;;2.63;2.05;;;22.50;99.90;;;;;;6275755;22;20175;-73
2021/09/14 15:46:16;;;;;;;3.60;2.28;;;22.80;99.90;;;;;;6275702;22;20179;-76
2021/09/14 15:48:44;;;;;;;4.03;2.45;;;23.00;99.90;;;;;;6275263;22;20202;-76
2021/09/14 15:51:12;;;;;;;2.72;2.03;;;23.20;99.90;;;;;;6275491;22;20186;-73
2021/09/14 15:53:39;;;;;;;5.40;2.50;;;23.20;99.90;;;;;;6275719;22;20175;-75
2021/09/14 15:56:07;;;;;;;3.95;2.05;;;23.20;99.90;;;;;;6275852;22;20181;-73
2021/09/14 15:58:34;;;;;;;5.43;2.30;;;23.30;99.90;;;;;;6274833;22;20202;-73
2021/09/14 16:01:01;;;;;;;4.22;2.50;;;23.40;99.90;;;;;;6276817;22;20174;-73
2021/09/14 16:03:30;;;;;;;2.80;2.10;;;23.40;99.90;;;;;;6276089;22;20178;-76
2021/09/14 16:05:57;;;;;;;3.15;2.53;;;23.30;99.90;;;;;;6275603;22;20175;-71
2021/09/14 16:08:26;;;;;;;3.63;2.45;;;23.10;99.90;;;;;;6275851;22;20175;-74
2021/09/14 16:10:54;;;;;;;3.28;2.50;;;22.90;99.90;;;;;;6275827;22;20210;-72
2021/09/14 16:13:20;;;;;;;2.58;2.00;;;22.60;99.90;;;;;;6275753;22;20174;-73
2021/09/14 16:15:47;;;;;;;3.95;2.25;;;22.30;99.90;;;;;;6275786;22;20206;-71
2021/09/14 16:18:14;;;;;;;3.45;2.10;;;22.20;99.90;;;;;;6276542;22;20181;-72
2021/09/14 16:20:41;;;;;;;3.45;1.98;;;22.40;99.90;;;;;;6248940;22;20657;-75
2021/09/14 16:23:11;;;;;;;8.27;2.40;;;22.50;99.90;;;;;;6275347;22;20209;-72
2021/09/14 16:25:39;;;;;;;3.97;2.40;;;22.60;99.90;;;;;;6274824;22;20175;-72
2021/09/14 16:28:07;;;;;;;3.60;2.25;;;22.70;99.90;;;;;;6275439;22;20186;-71
2021/09/14 16:30:36;;;;;;;4.35;2.28;;;22.70;99.90;;;;;;6274148;22;20206;-72
2021/09/14 16:33:03;;;;;;;3.17;2.08;;;22.70;99.90;;;;;;6274211;22;20253;-73
2021/09/14 16:35:30;;;;;;;3.45;2.10;;;22.70;99.90;;;;;;6275196;22;20175;-73
2021/09/14 16:37:57;;;;;;;3.45;2.20;;;22.70;99.90;;;;;;6273325;22;20634;-73
2021/09/14 16:40:24;;;;;;;3.72;2.28;;;22.60;99.90;;;;;;6275036;22;20210;-73
2021/09/14 16:42:52;;;;;;;5.32;2.30;;;22.50;99.90;;;;;;6275117;22;20179;-72
2021/09/14 16:45:19;;;;;;;3.05;1.90;;;22.60;99.90;;;;;;6274565;22;20175;-74
2021/09/14 16:47:45;;;;;;;2.92;2.30;;;22.70;99.90;;;;;;6274764;22;20175;-74
2021/09/14 16:50:14;;;;;;;3.38;2.13;;;22.70;99.90;;;;;;6274875;22;20222;-73
2021/09/14 16:52:41;;;;;;;4.22;2.30;;;22.70;99.90;;;;;;6275315;22;20175;-74
2021/09/14 16:55:11;;;;;;;3.25;2.00;;;22.80;99.90;;;;;;6274527;22;20664;-73
2021/09/14 16:57:38;;;;;;;3.70;2.45;;;22.70;99.90;;;;;;6274832;22;20705;-73
2021/09/14 17:00:08;;;;;;;3.42;2.15;;;22.70;99.90;;;;;;6274422;22;20217;-73
2021/09/14 17:02:36;;;;;;;3.05;1.95;;;22.80;99.90;;;;;;6274712;22;20186;-71
2021/09/14 17:05:04;;;;;;;3.38;1.95;;;22.80;99.90;;;;;;6275470;22;20268;-72
2021/09/14 17:07:31;;;;;;;6.03;2.28;;;22.80;99.90;;;;;;6275287;22;20206;-74
2021/09/14 17:09:58;;;;;;;2.95;2.22;;;22.70;99.90;;;;;;6276407;22;20205;-72
2021/09/14 17:12:25;;;;;;;4.03;1.90;;;22.70;99.90;;;;;;6276418;22;20185;-73
2021/09/14 17:14:51;;;;;;;2.67;2.00;;;22.50;99.90;;;;;;6276616;22;20175;-72
2021/09/14 17:17:19;;;;;;;3.83;2.17;;;22.50;99.90;;;;;;6276979;22;20629;-72
2021/09/14 17:19:46;;;;;;;4.28;2.20;;;22.40;99.90;;;;;;6276475;22;20220;-72
2021/09/14 17:22:14;;;;;;;3.92;1.85;;;22.30;99.90;;;;;;6276829;22;20183;-75
2021/09/14 17:24:40;;;;;;;4.20;2.30;;;22.20;99.90;;;;;;6277331;22;20225;-78
2021/09/14 17:27:07;;;;;;;3.72;2.17;;;22.20;99.90;;;;;;6277595;22;20181;-78
2021/09/14 17:29:34;;;;;;;3.00;2.15;;;22.20;99.90;;;;;;6277385;22;20202;-78
2021/09/14 17:32:01;;;;;;;3.30;2.20;;;22.20;99.90;;;;;;6277756;22;20175;-77
2021/09/14 17:34:29;;;;;;;2.47;1.90;;;22.30;99.90;;;;;;6277855;22;20175;-79
2021/09/14 17:36:56;;;;;;;4.50;1.77;;;22.30;99.90;;;;;;6277207;22;20497;-78
2021/09/14 17:39:22;;;;;;;4.28;2.00;;;22.30;99.90;;;;;;6277147;22;20202;-78
2021/09/14 17:41:49;;;;;;;3.53;2.20;;;22.40;99.90;;;;;;6277565;22;20185;-76
2021/09/14 17:44:17;;;;;;;3.75;2.03;;;22.30;99.90;;;;;;6276939;22;20175;-78
2021/09/14 17:46:44;;;;;;;3.90;2.05;;;22.20;99.90;;;;;;6277187;22;20214;-78
2021/09/14 17:49:11;;;;;;;3.40;2.38;;;22.20;99.90;;;;;;6276956;22;20595;-78
2021/09/14 17:51:39;;;;;;;2.97;2.08;;;22.30;99.90;;;;;;6277353;22;20622;-71
2021/09/14 17:54:05;;;;;;;2.67;2.10;;;22.30;99.90;;;;;;6277672;22;20258;-79
2021/09/14 17:56:32;;;;;;;5.85;2.72;;;22.30;99.90;;;;;;6277591;22;20175;-76
2021/09/14 17:58:59;;;;;;;3.03;2.40;;;22.20;99.90;;;;;;6277065;22;20670;-79
2021/09/14 18:01:26;;;;;;;3.75;2.00;;;22.20;99.90;;;;;;6276897;22;20501;-77
2021/09/14 18:03:52;;;;;;;2.55;2.08;;;22.20;99.90;;;;;;6277630;22;20174;-78
2021/09/14 18:06:19;;;;;;;2.95;2.10;;;22.20;99.90;;;;;;6278106;22;20190;-75
2021/09/14 18:08:47;;;;;;;4.22;2.10;;;22.10;99.90;;;;;;6277376;22;20195;-75
2021/09/14 18:11:14;;;;;;;2.42;2.10;;;22.10;99.90;;;;;;6273300;22;20193;-72
2021/09/14 18:13:42;;;;;;;3.45;2.40;;;22.00;99.90;;;;;;6277753;22;20175;-74
2021/09/14 18:16:09;;;;;;;2.70;2.10;;;22.00;99.90;;;;;;6276466;22;20547;-71
2021/09/14 18:18:36;;;;;;;3.58;2.40;;;22.00;99.90;;;;;;6276080;22;20199;-74
2021/09/14 18:21:03;;;;;;;3.45;2.40;;;21.90;99.90;;;;;;6276779;22;20206;-71
2021/09/14 18:23:30;;;;;;;4.38;2.67;;;21.90;99.90;;;;;;6276057;22;20175;-71
2021/09/14 18:25:58;;;;;;;3.15;2.35;;;21.80;99.90;;;;;;6276441;22;20185;-71
2021/09/14 18:28:27;;;;;;;4.68;2.20;;;21.80;99.90;;;;;;6276389;22;20508;-74
2021/09/14 18:30:53;;;;;;;3.40;2.22;;;21.80;99.90;;;;;;6276103;22;20557;-74
2021/09/14 18:33:20;;;;;;;4.47;2.40;;;21.80;99.90;;;;;;6277914;22;20183;-70
